Time;durP1;ratioP1;P1;durP2;ratioP2;P2;SDS_P1;SDS_P2;PMS_P1;PMS_P2;Temp;Humidity;BMP_temperature;BMP_pressure;BME280_temperature;BME280_humidity;BME280_pressure;Samples;Min_cycle;Max_cycle;Signal;HPM_P1;HPM_P2
2023/05/17 00:00:31;;;;;;;14.93;6.60;;;;;;;14.93;68.33;99917.19;4854155;28;20317;-56
2023/05/17 00:03:02;;;;;;;14.27;5.45;;;;;;;14.79;66.67;99925.63;4853421;28;21460;-55
2023/05/17 00:05:33;;;;;;;14.90;6.13;;;;;;;14.55;66.73;99941.44;4863668;28;20038;-57
2023/05/17 00:08:04;;;;;;;14.55;5.30;;;;;;;14.40;66.88;99944.56;4861356;28;20944;-57
2023/05/17 00:10:40;;;;;;;13.20;5.55;;;;;;;14.29;67.39;99941.50;4854055;28;20061;-55
2023/05/17 00:13:11;;;;;;;15.60;5.17;;;;;;;14.31;66.99;99934.44;4854502;28;20984;-57
2023/05/17 00:15:45;;;;;;;14.70;5.27;;;;;;;14.49;67.41;99928.47;4853993;28;20301;-56
2023/05/17 00:18:15;;;;;;;15.02;5.25;;;;;;;14.58;66.89;99912.38;4844063;28;20664;-57
2023/05/17 00:20:46;;;;;;;13.47;4.83;;;;;;;14.63;65.45;99915.69;4855247;28;20544;-57
2023/05/17 00:23:23;;;;;;;12.93;5.00;;;;;;;14.84;66.17;99899.97;4854236;28;20293;-56
2023/05/17 00:25:59;;;;;;;18.40;5.80;;;;;;;14.93;65.89;99923.31;4841319;28;20356;-56
2023/05/17 00:28:29;;;;;;;12.73;5.53;;;;;;;15.21;65.75;99906.41;4860416;28;20080;-55
2023/05/17 00:31:00;;;;;;;14.03;5.40;;;;;;;15.61;64.04;99915.25;4856698;28;20865;-57
2023/05/17 00:33:31;;;;;;;18.43;5.80;;;;;;;15.82;62.84;99903.81;4852677;28;20281;-58
2023/05/17 00:36:01;;;;;;;16.97;5.60;;;;;;;16.01;62.59;99914.41;4839413;28;20755;-58
2023/05/17 00:38:32;;;;;;;16.30;5.27;;;;;;;16.11;61.22;99901.69;4838012;28;20281;-55
2023/05/17 00:41:05;;;;;;;13.90;5.77;;;;;;;16.24;62.14;99883.53;4843604;28;20421;-55
2023/05/17 00:43:36;;;;;;;14.77;5.80;;;;;;;16.52;61.03;99885.72;4837953;28;20311;-58
2023/05/17 00:46:07;;;;;;;16.07;5.47;;;;;;;16.50;59.23;99874.38;4854306;28;20299;-56
2023/05/17 00:48:38;;;;;;;15.93;5.27;;;;;;;16.44;58.79;99854.44;4853440;28;20288;-59
2023/05/17 00:51:12;;;;;;;14.47;5.33;;;;;;;16.21;58.38;99852.88;4854329;28;21155;-58
2023/05/17 00:53:43;;;;;;;35.63;7.53;;;;;;;16.11;59.03;99862.16;4848273;28;20698;-57
2023/05/17 00:56:19;;;;;;;16.93;5.80;;;;;;;15.89;59.98;99878.06;4856473;28;20708;-57
2023/05/17 00:58:55;;;;;;;17.27;4.93;;;;;;;15.68;59.65;99890.38;4852972;28;20286;-58
2023/05/17 01:01:27;;;;;;;20.53;5.70;;;;;;;15.52;59.80;99901.56;4842698;28;21121;-58
2023/05/17 01:03:58;;;;;;;13.87;4.90;;;;;;;15.46;60.09;99888.66;4862661;28;20288;-57
2023/05/17 01:06:29;;;;;;;16.53;4.90;;;;;;;15.41;59.37;99905.56;4852957;28;20284;-56
2023/05/17 01:08:59;;;;;;;18.03;4.67;;;;;;;15.44;58.74;99914.19;4857554;28;20371;-56
2023/05/17 01:11:43;;;;;;;12.43;4.40;;;;;;;15.65;59.45;99906.28;4851499;28;20844;-57
2023/05/17 01:14:28;;;;;;;14.20;5.07;;;;;;;15.70;58.50;99893.81;4845542;28;20360;-58
2023/05/17 01:17:05;;;;;;;14.60;5.00;;;;;;;15.91;58.87;99903.41;4843039;28;20281;-58
2023/05/17 01:20:05;;;;;;;12.17;4.73;;;;;;;16.15;58.80;99905.91;4829273;28;20277;-58
2023/05/17 01:22:45;;;;;;;12.70;4.27;;;;;;;16.39;58.34;99893.34;4832551;28;20343;-57
2023/05/17 01:25:41;;;;;;;13.03;4.03;;;;;;;16.46;56.64;99896.56;4843790;28;20933;-57
2023/05/17 01:28:16;;;;;;;10.90;4.40;;;;;;;16.61;56.31;99893.22;4823387;28;20771;-55
2023/05/17 01:30:48;;;;;;;17.93;5.07;;;;;;;16.57;54.88;99889.00;4836460;28;20938;-58
2023/05/17 01:33:20;;;;;;;13.67;4.03;;;;;;;16.66;55.89;99896.50;4836621;28;21369;-57
2023/05/17 01:35:51;;;;;;;14.27;4.10;;;;;;;16.80;54.73;99909.91;4838426;28;20290;-55
2023/05/17 01:38:21;;;;;;;12.00;3.97;;;;;;;16.89;54.93;99887.50;4852547;28;20292;-55
2023/05/17 01:41:02;;;;;;;9.80;4.37;;;;;;;16.75;54.14;99874.09;4851772;28;20275;-57
2023/05/17 01:43:43;;;;;;;26.60;4.57;;;;;;;16.92;53.63;99875.94;4846622;28;20489;-56
2023/05/17 01:46:25;;;;;;;21.30;4.50;;;;;;;16.97;53.26;99873.94;4847182;28;20314;-56
2023/05/17 01:49:07;;;;;;;17.03;4.70;;;;;;;17.03;52.74;99877.13;4846225;28;21382;-56
2023/05/17 01:51:48;;;;;;;14.37;3.97;;;;;;;17.06;54.37;99868.22;4840653;28;20281;-57
2023/05/17 01:54:25;;;;;;;15.40;4.33;;;;;;;17.27;53.53;99862.78;4843082;28;20288;-57
2023/05/17 01:57:05;;;;;;;16.33;4.57;;;;;;;17.00;52.06;99816.59;4843397;28;20368;-57
2023/05/17 01:59:39;;;;;;;13.47;3.87;;;;;;;17.20;52.27;99844.63;4845137;28;20280;-57
2023/05/17 02:02:10;;;;;;;13.77;3.97;;;;;;;17.44;53.63;99860.13;4837506;28;20281;-58
2023/05/17 02:04:41;;;;;;;13.93;4.20;;;;;;;17.60;53.14;99863.72;4851555;28;20300;-58
2023/05/17 02:07:15;;;;;;;8.27;3.60;;;;;;;17.65;51.79;99853.75;4836957;28;20281;-57
2023/05/17 02:09:46;;;;;;;12.27;4.60;;;;;;;17.86;49.79;99872.09;4838610;28;20419;-57
2023/05/17 02:12:16;;;;;;;11.23;3.47;;;;;;;17.82;50.57;99873.19;4837352;28;20348;-57
2023/05/17 02:14:49;;;;;;;13.97;4.50;;;;;;;17.97;49.82;99867.09;4838387;28;20319;-56
2023/05/17 02:17:20;;;;;;;12.67;3.90;;;;;;;18.04;50.34;99852.59;4846996;28;20637;-59
2023/05/17 02:19:51;;;;;;;17.47;4.17;;;;;;;18.11;51.01;99842.56;4845311;28;20305;-59
2023/05/17 02:22:24;;;;;;;12.87;4.40;;;;;;;18.28;50.70;99833.72;4836379;28;20763;-59
2023/05/17 02:24:55;;;;;;;14.07;4.40;;;;;;;18.47;49.53;99854.69;4826165;28;20838;-58
2023/05/17 02:27:26;;;;;;;10.97;4.07;;;;;;;18.39;48.82;99856.91;4845541;28;20280;-58
2023/05/17 02:29:58;;;;;;;11.27;3.80;;;;;;;18.33;48.26;99836.94;4837273;28;20297;-57
2023/05/17 02:32:30;;;;;;;14.83;4.60;;;;;;;18.38;49.34;99845.47;4838020;28;20664;-55
2023/05/17 02:35:02;;;;;;;15.90;4.67;;;;;;;18.68;50.30;99842.06;4844408;28;20751;-59
2023/05/17 02:37:33;;;;;;;13.40;4.43;;;;;;;18.81;49.32;99837.81;4847212;28;20293;-57
2023/05/17 02:40:07;;;;;;;8.90;3.83;;;;;;;18.58;48.67;99838.22;4853920;28;20283;-55
2023/05/17 02:42:38;;;;;;;11.13;4.07;;;;;;;18.38;47.94;99848.13;4853193;28;20293;-57
2023/05/17 02:45:12;;;;;;;17.43;4.33;;;;;;;18.13;48.19;99845.13;4860776;28;20292;-57
2023/05/17 02:47:46;;;;;;;23.23;4.57;;;;;;;18.00;48.66;99845.78;4843349;28;20760;-57
2023/05/17 02:50:19;;;;;;;19.43;4.57;;;;;;;18.11;49.35;99838.13;4852514;28;20380;-57
2023/05/17 02:52:50;;;;;;;9.30;4.30;;;;;;;18.23;47.71;99810.16;4851797;28;20320;-57
2023/05/17 02:55:22;;;;;;;9.63;3.60;;;;;;;18.21;48.04;99811.19;4852987;28;20319;-57
2023/05/17 02:57:52;;;;;;;11.30;3.47;;;;;;;18.21;47.62;99805.88;4836246;28;20281;-56
2023/05/17 03:00:25;;;;;;;9.73;4.27;;;;;;;18.33;49.28;99799.91;4843789;28;20277;-57
2023/05/17 03:02:56;;;;;;;14.20;4.37;;;;;;;18.43;48.47;99801.09;4838617;28;20293;-57
2023/05/17 03:05:27;;;;;;;13.00;3.70;;;;;;;18.36;48.64;99797.09;4854929;28;20374;-58
2023/05/17 03:07:58;;;;;;;12.67;3.53;;;;;;;18.28;48.49;99796.69;4856244;28;20315;-57
2023/05/17 03:10:29;;;;;;;8.60;3.63;;;;;;;18.28;48.60;99808.09;4855270;28;20309;-58
2023/05/17 03:13:00;;;;;;;9.63;3.90;;;;;;;18.23;48.43;99814.59;4855284;28;20292;-58
2023/05/17 03:15:34;;;;;;;13.60;3.50;;;;;;;18.10;48.46;99814.41;4851372;28;20310;-57
2023/05/17 03:18:05;;;;;;;8.43;3.33;;;;;;;17.93;48.05;99809.19;4855725;28;20283;-58
2023/05/17 03:20:36;;;;;;;14.70;3.70;;;;;;;17.80;49.81;99806.38;4855653;28;20408;-57
2023/05/17 03:23:08;;;;;;;13.07;3.50;;;;;;;18.03;49.15;99824.47;4855376;28;20861;-57
2023/05/17 03:25:39;;;;;;;13.07;3.30;;;;;;;17.98;48.67;99831.78;4854752;28;21148;-56
2023/05/17 03:28:11;;;;;;;11.60;3.57;;;;;;;17.95;49.19;99817.91;4855394;28;20738;-57
2023/05/17 03:30:43;;;;;;;10.87;3.70;;;;;;;17.80;47.94;99798.44;4855705;28;20323;-56
2023/05/17 03:33:16;;;;;;;11.83;4.17;;;;;;;17.75;49.88;99808.38;4855695;28;20300;-57
2023/05/17 03:35:47;;;;;;;11.20;4.50;;;;;;;17.82;49.37;99809.75;4844335;28;20280;-57
2023/05/17 03:38:18;;;;;;;9.53;3.87;;;;;;;17.84;49.06;99797.31;4858890;28;20387;-57
2023/05/17 03:40:49;;;;;;;13.20;4.27;;;;;;;17.95;49.61;99809.97;4862126;28;20731;-57
2023/05/17 03:43:20;;;;;;;11.47;3.90;;;;;;;18.04;49.54;99805.00;4854805;28;20293;-57
2023/05/17 03:45:52;;;;;;;13.93;4.60;;;;;;;17.92;49.45;99800.38;4854909;28;20288;-57
2023/05/17 03:48:24;;;;;;;12.33;4.00;;;;;;;17.97;49.79;99808.06;4844721;28;20301;-56
2023/05/17 03:50:55;;;;;;;15.30;4.07;;;;;;;17.92;49.52;99810.97;4855440;28;20285;-57
2023/05/17 03:53:27;;;;;;;13.47;4.47;;;;;;;17.76;49.90;99810.06;4854843;28;20308;-57
2023/05/17 03:56:00;;;;;;;14.33;4.57;;;;;;;17.75;49.93;99797.78;4855365;28;21023;-57
2023/05/17 03:58:31;;;;;;;10.77;4.10;;;;;;;17.58;50.44;99802.16;4854589;28;20316;-57
2023/05/17 04:01:06;;;;;;;11.47;4.37;;;;;;;17.55;51.03;99798.84;4856622;28;20281;-57
2023/05/17 04:03:38;;;;;;;13.63;4.03;;;;;;;17.84;51.03;99811.38;4851513;28;20369;-57
2023/05/17 04:06:09;;;;;;;14.53;4.80;;;;;;;17.92;50.59;99799.53;4851299;28;20308;-57
2023/05/17 04:08:41;;;;;;;11.73;4.30;;;;;;;18.00;49.84;99814.06;4854169;28;20778;-57
2023/05/17 04:11:12;;;;;;;10.73;4.20;;;;;;;18.05;50.09;99803.25;4836167;28;20712;-57
2023/05/17 04:13:44;;;;;;;7.43;3.93;;;;;;;18.08;49.28;99790.69;4850433;28;20282;-57
2023/05/17 04:16:19;;;;;;;10.53;4.23;;;;;;;17.90;48.86;99791.72;4838771;28;20360;-58
2023/05/17 04:18:51;;;;;;;9.43;4.23;;;;;;;17.84;49.43;99792.03;4845725;28;20286;-58
2023/05/17 04:21:22;;;;;;;33.60;5.63;;;;;;;17.91;49.18;99788.13;4846335;28;21440;-57
2023/05/17 04:23:56;;;;;;;13.83;4.13;;;;;;;18.01;49.33;99789.31;4842485;28;20282;-57
2023/05/17 04:26:29;;;;;;;10.67;4.47;;;;;;;18.03;48.47;99798.03;4837409;28;20675;-57
2023/05/17 04:29:00;;;;;;;9.63;4.23;;;;;;;18.04;49.39;99791.78;4832147;28;20376;-57
2023/05/17 04:31:34;;;;;;;17.13;4.40;;;;;;;18.07;48.88;99789.00;4854287;28;20342;-57
2023/05/17 04:34:05;;;;;;;11.33;5.00;;;;;;;18.15;48.60;99795.66;4844627;28;20276;-56
2023/05/17 04:36:36;;;;;;;14.33;4.47;;;;;;;18.28;48.73;99778.16;4854328;28;20619;-57
2023/05/17 04:39:08;;;;;;;15.93;5.10;;;;;;;18.50;48.86;99796.34;4852170;28;20281;-56
2023/05/17 04:41:42;;;;;;;11.83;4.57;;;;;;;18.62;48.23;99795.66;4863684;28;20291;-57
2023/05/17 04:44:17;;;;;;;14.13;5.13;;;;;;;18.52;48.55;99805.88;4845180;28;20287;-58
2023/05/17 04:46:50;;;;;;;9.87;4.60;;;;;;;18.33;48.35;99794.63;4853388;28;20392;-58
2023/05/17 04:49:24;;;;;;;16.00;4.43;;;;;;;18.06;48.94;99771.41;4831635;28;20287;-60
2023/05/17 04:51:55;;;;;;;10.20;4.80;;;;;;;18.07;49.09;99789.00;4836482;28;20281;-56
2023/05/17 04:54:26;;;;;;;13.93;4.73;;;;;;;17.95;49.20;99763.25;4852314;28;20327;-58
2023/05/17 04:56:57;;;;;;;10.83;4.53;;;;;;;17.83;49.84;99772.69;4855182;28;20380;-57
2023/05/17 04:59:28;;;;;;;9.40;4.80;;;;;;;17.85;50.20;99775.25;4853388;28;20277;-57
2023/05/17 05:02:00;;;;;;;10.47;4.87;;;;;;;17.81;50.43;99771.06;4852620;28;20343;-58
2023/05/17 05:04:34;;;;;;;8.43;4.70;;;;;;;17.89;50.41;99779.41;4853132;28;20351;-58
2023/05/17 05:07:05;;;;;;;11.17;4.53;;;;;;;17.92;49.90;99797.75;4848756;28;20665;-57
2023/05/17 05:09:36;;;;;;;8.73;4.77;;;;;;;17.97;49.76;99793.09;4857567;28;20289;-56
2023/05/17 05:12:07;;;;;;;11.23;5.03;;;;;;;17.95;50.08;99800.25;4853143;28;20289;-58
2023/05/17 05:14:38;;;;;;;21.40;5.40;;;;;;;17.96;49.94;99801.94;4862603;28;20285;-57
2023/05/17 05:17:10;;;;;;;10.60;4.57;;;;;;;17.98;49.83;99789.50;4856263;28;20284;-57
2023/05/17 05:19:41;;;;;;;8.67;4.30;;;;;;;18.04;49.67;99778.56;4858804;28;20370;-58
2023/05/17 05:22:12;;;;;;;10.93;4.90;;;;;;;17.99;49.31;99766.56;4849944;28;20427;-57
2023/05/17 05:24:43;;;;;;;8.77;4.80;;;;;;;17.95;48.55;99763.25;4862547;28;20505;-56
2023/05/17 05:27:15;;;;;;;11.30;4.33;;;;;;;17.91;49.07;99756.41;4857885;28;20292;-57
2023/05/17 05:29:51;;;;;;;13.30;4.90;;;;;;;17.87;49.10;99739.00;4847356;28;21023;-58
2023/05/17 05:32:25;;;;;;;12.43;4.47;;;;;;;17.80;47.42;99742.94;4856804;28;21468;-57
2023/05/17 05:34:56;;;;;;;8.73;4.43;;;;;;;17.68;48.80;99739.13;4859952;28;20281;-57
2023/05/17 05:37:26;;;;;;;8.83;4.43;;;;;;;17.63;48.43;99726.16;4852925;28;20299;-57
2023/05/17 05:39:57;;;;;;;8.63;4.73;;;;;;;17.77;49.28;99721.91;4854310;28;20308;-57
2023/05/17 05:42:28;;;;;;;9.53;4.17;;;;;;;17.87;49.91;99731.06;4853394;28;20397;-58
2023/05/17 05:44:59;;;;;;;9.77;4.40;;;;;;;17.83;49.17;99711.06;4853301;28;20292;-57
2023/05/17 05:47:32;;;;;;;10.80;4.37;;;;;;;17.83;49.29;99716.34;4862271;28;20272;-57
2023/05/17 05:50:03;;;;;;;11.43;4.90;;;;;;;17.82;49.49;99735.75;4847796;28;20288;-57
2023/05/17 05:52:37;;;;;;;11.67;4.73;;;;;;;17.65;48.47;99724.31;4853821;28;20291;-57
2023/05/17 05:55:11;;;;;;;6.50;3.60;;;;;;;17.62;48.65;99703.34;4852181;28;20944;-57
2023/05/17 05:57:43;;;;;;;7.37;4.07;;;;;;;17.66;48.89;99698.72;4852385;28;20675;-57
2023/05/17 06:00:21;;;;;;;7.37;3.80;;;;;;;17.77;49.61;99695.47;4852610;28;20498;-56
2023/05/17 06:03:13;;;;;;;9.17;4.40;;;;;;;17.80;49.08;99695.38;4828624;28;20278;-57
2023/05/17 06:05:45;;;;;;;10.27;4.70;;;;;;;17.84;49.24;99696.88;4828132;28;21205;-57
2023/05/17 06:15:38;;;;;;;7.97;4.00;;;;;;;17.52;48.70;99717.09;4778167;28;20345;-57
2023/05/17 06:21:26;;;;;;;13.80;4.13;;;;;;;17.03;49.95;99725.84;4641786;29;20811;-57
2023/05/17 06:24:22;;;;;;;9.93;3.77;;;;;;;16.91;49.57;99737.03;4649757;29;20288;-57
2023/05/17 06:27:06;;;;;;;7.80;3.77;;;;;;;16.70;49.85;99713.41;4639251;29;20302;-58
2023/05/17 06:30:04;;;;;;;10.70;4.27;;;;;;;16.89;50.93;99730.97;4640418;29;20338;-57
2023/05/17 06:33:15;;;;;;;7.27;3.73;;;;;;;16.99;50.48;99729.56;4634453;29;20413;-57
2023/05/17 06:43:01;;;;;;;9.67;3.30;;;;;;;16.67;50.50;99663.41;4642825;29;20300;-58
2023/05/17 06:45:32;;;;;;;7.43;3.47;;;;;;;16.92;50.55;99722.88;4672456;29;20303;-56
2023/05/17 06:48:06;;;;;;;9.43;3.70;;;;;;;16.73;50.73;99713.25;4768227;28;20349;-56
2023/05/17 06:50:52;;;;;;;8.40;4.10;;;;;;;16.65;51.16;99730.38;4855464;28;20281;-57
2023/05/17 06:53:28;;;;;;;12.03;3.97;;;;;;;16.61;51.54;99746.34;4850842;28;20286;-56
2023/05/17 06:55:58;;;;;;;11.73;4.57;;;;;;;16.51;52.72;99726.63;4856056;28;20289;-57
2023/05/17 06:58:34;;;;;;;16.70;4.63;;;;;;;16.64;52.63;99745.34;4856595;28;20286;-56
2023/05/17 07:01:10;;;;;;;12.07;3.97;;;;;;;16.37;52.71;99737.88;4866257;28;20280;-57
2023/05/17 07:03:41;;;;;;;11.23;4.10;;;;;;;16.09;53.70;99742.75;4855330;28;20289;-58
2023/05/17 07:06:12;;;;;;;9.07;4.20;;;;;;;15.98;54.19;99745.91;4855205;28;20285;-57
2023/05/17 07:08:45;;;;;;;7.63;4.10;;;;;;;15.86;54.45;99752.59;4854411;28;20357;-56
2023/05/17 07:11:18;;;;;;;7.37;4.27;;;;;;;15.67;55.10;99733.25;4858317;28;20308;-57
2023/05/17 07:13:49;;;;;;;8.80;4.70;;;;;;;15.69;55.51;99756.00;4855803;28;20295;-57
2023/05/17 07:16:29;;;;;;;9.85;4.32;;;;;;;15.59;55.78;99757.31;4841109;28;20288;-57
2023/05/17 07:19:04;;;;;;;10.50;5.57;;;;;;;15.52;55.76;99769.91;4856042;28;20049;-57
2023/05/17 07:21:35;;;;;;;14.23;4.20;;;;;;;15.46;55.62;99780.69;4845661;28;20284;-57
2023/05/17 07:24:08;;;;;;;10.03;4.40;;;;;;;15.35;56.14;99787.34;4857074;28;20293;-58
2023/05/17 07:26:39;;;;;;;15.63;5.30;;;;;;;15.34;56.56;99786.50;4856608;28;20292;-56
2023/05/17 07:29:12;;;;;;;11.60;4.60;;;;;;;15.30;56.96;99795.44;4855464;28;20312;-57
2023/05/17 07:31:43;;;;;;;12.43;4.70;;;;;;;15.21;57.17;99801.13;4850236;28;21219;-57
2023/05/17 07:34:14;;;;;;;10.57;4.93;;;;;;;15.02;57.10;99795.78;4860831;28;20347;-56
2023/05/17 07:37:04;;;;;;;15.60;4.87;;;;;;;14.88;57.77;99793.75;4862379;28;20370;-57
2023/05/17 07:39:50;;;;;;;10.83;4.23;;;;;;;14.83;58.56;99795.69;4844368;28;20277;-58
2023/05/17 07:42:27;;;;;;;11.73;4.77;;;;;;;14.71;58.40;99785.69;4842219;28;20286;-56
2023/05/17 07:45:04;;;;;;;8.47;4.30;;;;;;;14.65;58.10;99782.38;4854973;28;20388;-57
2023/05/17 07:47:35;;;;;;;14.97;4.67;;;;;;;14.63;58.00;99768.44;4855597;28;20339;-58
2023/05/17 07:50:08;;;;;;;7.70;4.60;;;;;;;14.57;57.54;99773.94;4855822;28;20289;-57
2023/05/17 07:52:39;;;;;;;7.00;4.00;;;;;;;14.52;57.97;99767.97;4849432;28;20304;-58
2023/05/17 07:55:12;;;;;;;10.73;4.00;;;;;;;14.62;58.38;99765.88;4864127;28;20422;-57
2023/05/17 07:57:49;;;;;;;7.93;4.13;;;;;;;14.67;57.93;99764.75;4845752;28;20296;-56
2023/05/17 08:00:27;;;;;;;12.30;5.20;;;;;;;14.75;58.34;99787.25;4851912;28;20283;-57
2023/05/17 08:03:02;;;;;;;9.40;4.10;;;;;;;14.74;58.26;99775.03;4855565;28;20386;-57
2023/05/17 08:05:35;;;;;;;7.43;4.07;;;;;;;14.86;58.26;99791.16;4844479;28;20284;-57
2023/05/17 08:08:07;;;;;;;8.10;4.90;;;;;;;14.78;57.96;99745.91;4855383;28;20277;-57
2023/05/17 08:10:41;;;;;;;11.17;4.83;;;;;;;14.73;57.64;99742.63;4854966;28;20289;-57
2023/05/17 08:13:15;;;;;;;8.40;4.83;;;;;;;14.89;57.82;99766.50;4844876;28;20643;-57
2023/05/17 08:15:49;;;;;;;13.20;4.80;;;;;;;14.93;58.05;99775.97;4854701;28;20293;-57
2023/05/17 08:18:27;;;;;;;16.90;5.03;;;;;;;14.98;58.34;99800.31;4844818;28;20339;-57
2023/05/17 08:21:00;;;;;;;12.27;4.73;;;;;;;14.86;58.46;99791.16;4854699;28;20986;-57
2023/05/17 08:23:31;;;;;;;13.07;4.63;;;;;;;14.70;58.22;99782.19;4854056;28;20301;-57
2023/05/17 08:26:08;;;;;;;8.43;4.77;;;;;;;14.56;58.84;99776.66;4854112;28;20292;-57
2023/05/17 08:28:43;;;;;;;14.30;5.03;;;;;;;14.51;58.79;99774.16;4845781;28;20319;-57
2023/05/17 08:31:16;;;;;;;12.13;4.60;;;;;;;14.12;59.35;99740.66;4852394;28;21092;-57
2023/05/17 08:33:47;;;;;;;11.07;4.70;;;;;;;14.20;59.91;99764.00;4850116;28;20276;-57
2023/05/17 08:36:18;;;;;;;12.37;4.67;;;;;;;14.18;60.07;99764.09;4853181;28;20282;-58
2023/05/17 08:38:49;;;;;;;10.40;4.43;;;;;;;14.06;60.70;99772.44;4854398;28;20300;-57
2023/05/17 08:41:34;;;;;;;13.77;5.03;;;;;;;13.98;61.05;99774.50;4854416;28;20377;-57
2023/05/17 08:44:10;;;;;;;17.67;4.37;;;;;;;13.92;61.04;99774.72;4839495;28;20279;-57
2023/05/17 08:46:42;;;;;;;13.67;4.83;;;;;;;13.70;61.29;99769.41;4853619;28;20739;-57
2023/05/17 08:49:17;;;;;;;14.07;4.83;;;;;;;13.59;61.91;99767.19;4849173;28;20357;-56
2023/05/17 08:51:51;;;;;;;12.13;4.80;;;;;;;13.50;62.20;99751.78;4862634;28;20647;-57
2023/05/17 08:54:22;;;;;;;11.73;5.13;;;;;;;13.51;62.59;99758.75;4853397;28;20338;-57
2023/05/17 08:56:59;;;;;;;18.90;5.17;;;;;;;13.37;62.63;99746.13;4858885;28;21819;-56
2023/05/17 08:59:32;;;;;;;13.73;5.30;;;;;;;13.34;63.20;99747.09;4853262;28;20510;-57
2023/05/17 09:02:04;;;;;;;17.92;5.30;;;;;;;13.35;63.23;99768.94;4849299;28;20104;-56
2023/05/17 09:04:38;;;;;;;11.90;5.55;;;;;;;13.19;63.33;99789.56;4864475;28;20136;-57
2023/05/17 09:07:09;;;;;;;14.43;6.80;;;;;;;13.12;63.75;99793.31;4853771;28;20462;-57
2023/05/17 09:09:45;;;;;;;16.00;5.72;;;;;;;13.05;63.78;99797.06;4858592;28;20383;-57
2023/05/17 09:12:18;;;;;;;10.70;6.45;;;;;;;12.99;63.94;99815.63;4847889;28;20141;-57
2023/05/17 09:14:49;;;;;;;12.82;6.60;;;;;;;12.88;64.03;99801.13;4851266;28;20076;-57
2023/05/17 09:17:22;;;;;;;13.15;5.38;;;;;;;12.84;64.11;99803.88;4832858;28;20061;-56
2023/05/17 09:22:38;;;;;;;23.17;4.80;;;;;;;12.74;64.38;99787.59;4851577;28;20060;-58
2023/05/17 09:25:25;;;;;;;10.52;5.38;;;;;;;12.67;64.53;99797.41;4817687;28;20967;-57
2023/05/17 09:28:03;;;;;;;11.80;5.32;;;;;;;12.65;65.16;99795.75;4853251;28;20056;-58
2023/05/17 09:30:38;;;;;;;11.43;4.70;;;;;;;12.59;65.06;99782.84;4843163;28;20785;-58
2023/05/17 09:33:11;;;;;;;11.90;4.60;;;;;;;12.55;64.86;99776.00;4852231;28;20049;-57
2023/05/17 09:35:48;;;;;;;11.73;5.60;;;;;;;12.46;65.12;99798.97;4840934;28;20562;-58
2023/05/17 09:38:21;;;;;;;10.25;5.15;;;;;;;12.05;65.31;99758.34;4853299;28;20088;-57
2023/05/17 09:40:56;;;;;;;13.32;5.05;;;;;;;12.26;65.57;99814.47;4844481;28;20188;-56
2023/05/17 09:43:33;;;;;;;13.32;7.13;;;;;;;12.12;65.77;99816.63;4851892;28;20071;-57
2023/05/17 09:46:08;;;;;;;9.90;5.30;;;;;;;11.83;66.05;99797.34;4842175;28;20049;-58
2023/05/17 09:48:45;;;;;;;10.07;5.30;;;;;;;11.95;66.52;99833.69;4837393;28;20062;-58
2023/05/17 09:51:20;;;;;;;10.80;5.20;;;;;;;11.89;66.61;99833.88;4841560;28;20627;-57
2023/05/17 09:53:56;;;;;;;12.52;6.28;;;;;;;11.85;67.22;99842.66;4852594;28;20064;-58
2023/05/17 09:56:33;;;;;;;14.27;5.65;;;;;;;11.85;67.30;99834.81;4842761;28;20054;-57
2023/05/17 09:59:15;;;;;;;11.02;5.28;;;;;;;11.88;67.19;99842.59;4842550;28;20050;-58
2023/05/17 10:01:53;;;;;;;10.55;5.35;;;;;;;11.82;67.37;99842.75;4841277;28;20065;-58
2023/05/17 10:04:33;;;;;;;12.48;5.95;;;;;;;11.71;67.67;99850.91;4842285;28;20082;-58
2023/05/17 10:07:07;;;;;;;11.40;5.80;;;;;;;11.68;68.15;99850.13;4830767;28;20079;-57
2023/05/17 10:09:42;;;;;;;10.90;5.45;;;;;;;11.58;68.34;99839.94;4855394;28;20954;-58
2023/05/17 10:12:17;;;;;;;13.02;5.43;;;;;;;11.47;68.53;99826.28;4848112;28;20054;-57
2023/05/17 10:14:54;;;;;;;13.48;5.85;;;;;;;11.36;69.06;99844.03;4856120;28;21109;-58
2023/05/17 10:17:29;;;;;;;12.65;5.85;;;;;;;11.32;69.16;99842.38;4846315;28;20057;-58
2023/05/17 10:20:03;;;;;;;13.65;6.88;;;;;;;11.28;69.33;99840.72;4856208;28;20067;-58
2023/05/17 10:44:46;;;;;;;18.45;7.18;;;;;;;10.83;71.88;99896.72;4860570;28;20132;-56
2023/05/17 10:47:18;;;;;;;13.88;6.88;;;;;;;10.71;72.44;99903.13;4845684;28;20756;-57
2023/05/17 10:49:50;;;;;;;15.48;7.97;;;;;;;10.68;72.53;99908.38;4855531;28;20053;-57
2023/05/17 10:52:23;;;;;;;20.45;8.75;;;;;;;10.62;72.85;99913.75;4855419;28;20061;-58
2023/05/17 10:54:56;;;;;;;30.40;16.70;;;;;;;10.74;72.83;99916.09;4844339;28;20053;-56
2023/05/17 10:57:36;;;;;;;29.67;18.08;;;;;;;10.74;72.76;99908.25;4855368;28;20061;-57
2023/05/17 11:00:28;;;;;;;48.63;26.60;;;;;;;10.66;73.03;99910.19;4845726;28;20073;-57
2023/05/17 11:03:14;;;;;;;51.75;28.45;;;;;;;10.65;73.16;99903.22;4843598;28;20439;-57
2023/05/17 11:06:07;;;;;;;31.52;18.83;;;;;;;10.36;73.18;99868.19;4845347;28;20050;-57
2023/05/17 11:09:09;;;;;;;15.90;7.95;;;;;;;10.53;73.92;99924.41;4854249;28;20062;-57
2023/05/17 11:12:07;;;;;;;18.55;7.75;;;;;;;10.45;74.14;99931.56;4844942;28;20057;-57
2023/05/17 11:15:00;;;;;;;17.52;7.97;;;;;;;10.32;74.65;99937.03;4843145;28;20050;-57
2023/05/17 11:17:48;;;;;;;21.13;8.50;;;;;;;10.25;75.32;99940.63;4842857;28;20100;-57
2023/05/17 11:20:38;;;;;;;19.05;8.45;;;;;;;10.10;75.52;99930.50;4845620;28;20061;-57
2023/05/17 11:23:18;;;;;;;17.60;7.95;;;;;;;10.05;76.18;99927.97;4845385;28;20049;-57
2023/05/17 11:25:52;;;;;;;18.20;8.43;;;;;;;10.04;76.34;99951.50;4844954;28;20590;-57
2023/05/17 11:28:25;;;;;;;18.92;8.50;;;;;;;9.99;76.73;99937.69;4848442;28;20054;-56
2023/05/17 11:31:03;;;;;;;16.65;7.93;;;;;;;9.88;76.71;99930.91;4855069;28;20050;-57
2023/05/17 11:33:45;;;;;;;36.58;11.15;;;;;;;9.79;77.30;99936.31;4831001;28;21410;-56
2023/05/17 11:36:22;;;;;;;20.73;8.77;;;;;;;9.74;77.78;99938.13;4844660;28;20132;-57
2023/05/17 11:39:14;;;;;;;15.68;8.15;;;;;;;9.70;77.93;99941.69;4848941;28;20047;-56
2023/05/17 11:41:51;;;;;;;22.80;9.13;;;;;;;9.67;78.29;99946.97;4843807;28;20601;-56
2023/05/17 11:44:30;;;;;;;19.98;9.30;;;;;;;9.59;78.19;99956.69;4851385;28;20065;-56
2023/05/17 11:47:08;;;;;;;59.65;14.68;;;;;;;9.43;78.40;99959.50;4851847;28;20069;-55
2023/05/17 11:49:45;;;;;;;29.88;10.27;;;;;;;9.28;79.11;99959.78;4853801;28;20649;-56
2023/05/17 11:52:20;;;;;;;13.68;8.55;;;;;;;9.27;79.46;99958.06;4844380;28;20104;-57
2023/05/17 11:54:54;;;;;;;20.48;9.40;;;;;;;9.28;79.81;99964.97;4852374;28;20170;-57
2023/05/17 11:57:35;;;;;;;16.13;8.93;;;;;;;9.21;79.68;99989.41;4843738;28;20053;-57
2023/05/17 12:00:15;;;;;;;48.15;13.55;;;;;;;9.05;80.09;99986.19;4844521;28;20049;-57
2023/05/17 12:02:48;;;;;;;24.13;9.05;;;;;;;9.10;80.54;99996.56;4843790;28;20052;-57
2023/05/17 12:05:26;;;;;;;23.52;10.45;;;;;;;9.20;80.74;99995.53;4854756;28;20699;-57
2023/05/17 12:07:59;;;;;;;42.45;13.20;;;;;;;9.26;81.31;99998.03;4841471;28;20065;-57
2023/05/17 12:10:32;;;;;;;31.52;9.70;;;;;;;9.31;81.87;100005.78;4854328;28;20065;-57
2023/05/17 12:13:04;;;;;;;17.77;9.45;;;;;;;9.33;81.74;99986.63;4846931;28;20586;-56
2023/05/17 12:15:36;;;;;;;18.67;8.63;;;;;;;9.15;81.73;99984.31;4854310;28;20061;-56
2023/05/17 12:18:08;;;;;;;24.45;9.60;;;;;;;8.95;82.25;99988.06;4853436;28;20463;-56
2023/05/17 12:20:53;;;;;;;15.35;8.32;;;;;;;8.72;83.12;99977.13;4853701;28;20053;-57
2023/05/17 12:23:31;;;;;;;20.13;8.43;;;;;;;8.63;82.97;99976.34;4843558;28;20500;-55
2023/05/17 12:26:08;;;;;;;20.45;9.95;;;;;;;8.64;83.59;99967.66;4851980;28;20532;-56
2023/05/17 12:28:40;;;;;;;20.23;8.70;;;;;;;8.79;83.50;99987.44;4852544;28;20056;-56
2023/05/17 12:31:15;;;;;;;20.38;8.15;;;;;;;8.66;83.33;99985.00;4853713;28;20049;-56
2023/05/17 12:33:49;;;;;;;18.92;7.82;;;;;;;8.65;83.60;100002.38;4843041;28;20053;-56
2023/05/17 12:36:23;;;;;;;23.17;7.68;;;;;;;8.22;83.10;99969.00;4850806;28;20046;-56
2023/05/17 12:38:56;;;;;;;22.35;7.55;;;;;;;8.15;82.96;100002.03;4843312;28;20062;-56
2023/05/17 12:41:27;;;;;;;25.02;7.68;;;;;;;7.88;83.61;99999.72;4853810;28;20108;-56
2023/05/17 12:43:58;;;;;;;22.17;7.82;;;;;;;7.66;83.91;99989.53;4855143;28;20070;-55